Maranguape, Brazil
Current Conditions -  °F | °C
As of 7:00 AM on Wednesday 26 Nov 2014 (Local Time) from SBFZ Reporting Station
Broken Clouds Broken Clouds  
Wind Chill: 27°   Ceiling: 2000
Heat Index: 28°   Visibility: 6mi
Dew Point: 20°   Wind: 17mph
Humidity: 65%   Direction: 100°E
Pressure: 29.88"   Gusts: NA
Location:  3.89°S, 38.69°W
Report Text: SBFZ 261000Z 10015KT 9999 BKN020 27/20 Q1012
Loading
Personal Weather Stations






























Interactive Weather Map New forecast layout! Learn more

10-Day Weather Forecast

Advertisements
Track Severe Weather on mobile